Time;durP1;ratioP1;P1;durP2;ratioP2;P2;SDS_P1;SDS_P2;PMS_P1;PMS_P2;Temp;Humidity;BMP_temperature;BMP_pressure;BME280_temperature;BME280_humidity;BME280_pressure;Samples;Min_cycle;Max_cycle;Signal;HPM_P1;HPM_P2
2023/10/12 00:02:13;;;;;;;8.80;5.50;;;;;;;7.15;100.00;95772.16;7400190;19;20393;-92
2023/10/12 00:05:00;;;;;;;7.93;5.70;;;;;;;7.12;100.00;95757.81;7403419;19;20399;-92
2023/10/12 00:07:35;;;;;;;10.23;5.40;;;;;;;7.16;100.00;95747.44;7401124;19;20375;-92
2023/10/12 00:12:44;;;;;;;11.83;6.00;;;;;;;7.04;100.00;95748.09;7400141;19;20921;-92
2023/10/12 00:15:28;;;;;;;9.00;5.90;;;;;;;6.01;100.00;95683.59;7400703;19;20912;-92
2023/10/12 00:17:58;;;;;;;7.00;5.40;;;;;;;6.23;100.00;95670.25;7401955;19;20448;-93
2023/10/12 00:22:58;;;;;;;10.57;7.60;;;;;;;6.82;100.00;95757.03;7402908;19;20790;-92
2023/10/12 00:25:26;;;;;;;9.93;5.87;;;;;;;6.87;100.00;95764.72;7401545;19;20393;-92
2023/10/12 00:27:53;;;;;;;8.07;5.50;;;;;;;6.53;100.00;95710.47;7398990;19;20745;-92
2023/10/12 00:30:20;;;;;;;10.83;6.73;;;;;;;5.59;100.00;95583.69;7397896;19;20384;-92
2023/10/12 00:32:48;;;;;;;7.47;6.37;;;;;;;6.10;100.00;95648.38;7397747;19;20400;-92
2023/10/12 00:35:17;;;;;;;9.53;4.43;;;;;;;7.81;100.00;95888.16;7400924;19;20407;-93
2023/10/12 00:37:44;;;;;;;13.30;5.03;;;;;;;7.12;100.00;95768.31;7399270;19;20738;-92
2023/10/12 00:40:29;;;;;;;9.60;5.73;;;;;;;7.94;100.00;95885.28;7398327;19;20424;-93
2023/10/12 00:42:59;;;;;;;6.93;6.23;;;;;;;7.65;100.00;95851.09;7402176;19;20417;-92
2023/10/12 00:45:31;;;;;;;14.43;6.00;;;;;;;6.85;100.00;95726.72;7402069;19;20396;-92
2023/10/12 00:48:08;;;;;;;14.83;6.90;;;;;;;7.43;100.00;95849.50;7399295;19;20421;-92
2023/10/12 00:50:36;;;;;;;8.40;6.63;;;;;;;7.29;100.00;95820.03;7397245;19;20396;-92
2023/10/12 00:53:27;;;;;;;10.30;7.43;;;;;;;6.67;100.00;95711.03;7398673;19;20800;-92
2023/10/12 00:55:57;;;;;;;9.73;6.47;;;;;;;6.90;100.00;95756.22;7399704;19;20939;-92
2023/10/12 00:58:24;;;;;;;10.40;6.90;;;;;;;5.33;100.00;95532.09;7399936;19;20432;-92
2023/10/12 01:00:51;;;;;;;10.13;7.43;;;;;;;6.88;100.00;95778.63;7399650;19;20404;-92
2023/10/12 01:03:31;;;;;;;14.93;6.83;;;;;;;6.62;100.00;95736.69;7406482;19;20389;-91
2023/10/12 01:08:42;;;;;;;8.07;7.17;;;;;;;6.65;100.00;95730.81;7398140;19;20444;-92
2023/10/12 01:11:25;;;;;;;7.20;6.50;;;;;;;5.64;100.00;95573.81;7402186;19;20949;-92
2023/10/12 01:14:17;;;;;;;9.63;6.20;;;;;;;6.87;100.00;95742.94;7394773;19;20379;-92
2023/10/12 01:16:54;;;;;;;14.30;7.67;;;;;;;6.29;100.00;95663.78;7397154;19;20373;-92
2023/10/12 01:19:22;;;;;;;10.10;7.13;;;;;;;6.14;100.00;95646.69;7398885;19;20416;-92
2023/10/12 01:21:57;;;;;;;14.37;7.23;;;;;;;5.46;100.00;95537.44;7395851;19;20391;-92
2023/10/12 01:24:30;;;;;;;10.87;6.60;;;;;;;6.89;100.00;95756.53;7400339;19;20376;-93
2023/10/12 01:26:59;;;;;;;11.47;6.63;;;;;;;6.26;100.00;95674.88;7398620;19;20400;-92
2023/10/12 01:29:27;;;;;;;11.43;5.83;;;;;;;6.91;100.00;95739.34;7398610;19;20408;-92
2023/10/12 01:34:37;;;;;;;11.03;6.90;;;;;;;6.79;100.00;95723.47;7398216;19;20456;-92
2023/10/12 01:37:26;;;;;;;6.20;5.30;;;;;;;6.92;100.00;95748.78;7399072;19;20384;-92
2023/10/12 01:47:57;;;;;;;7.33;5.73;;;;;;;5.97;100.00;95670.34;7429401;19;20404;-92
2023/10/12 01:50:28;;;;;;;9.60;5.80;;;;;;;5.87;100.00;95616.31;7423921;19;20417;-92
2023/10/12 01:52:58;;;;;;;13.33;7.90;;;;;;;5.78;100.00;95606.94;7399417;19;21265;-92
2023/10/12 01:55:30;;;;;;;7.53;5.67;;;;;;;6.01;100.00;95634.53;7395905;19;20383;-93
2023/10/12 01:57:58;;;;;;;13.10;6.80;;;;;;;7.21;100.00;95819.00;7398546;19;20412;-93
2023/10/12 02:00:27;;;;;;;10.13;6.20;;;;;;;6.03;100.00;95660.47;7397447;19;20377;-92
2023/10/12 02:03:06;;;;;;;7.90;6.03;;;;;;;7.34;100.00;95865.31;7402446;19;20441;-92
2023/10/12 02:05:36;;;;;;;8.13;6.40;;;;;;;5.90;100.00;95657.72;7397581;19;20388;-92
2023/10/12 02:08:05;;;;;;;9.43;5.87;;;;;;;6.63;100.00;95775.00;7398131;19;20416;-92
2023/10/12 02:10:41;;;;;;;8.10;4.97;;;;;;;6.69;100.00;95774.53;7394776;19;20927;-92
2023/10/12 02:13:10;;;;;;;7.53;5.40;;;;;;;6.13;100.00;95681.88;7393173;19;20377;-92
2023/10/12 02:15:38;;;;;;;6.40;5.77;;;;;;;6.99;100.00;95806.88;7398712;19;20396;-92
2023/10/12 02:18:11;;;;;;;11.67;6.10;;;;;;;6.27;100.00;95705.28;7399955;19;20416;-92
2023/10/12 02:20:47;;;;;;;8.70;5.70;;;;;;;6.98;100.00;95826.38;7395932;19;20376;-92
2023/10/12 02:23:14;;;;;;;10.17;5.90;;;;;;;5.93;100.00;95661.56;7396473;19;20463;-92
2023/10/12 02:25:50;;;;;;;13.67;6.13;;;;;;;6.13;100.00;95710.72;7402635;19;20788;-92
2023/10/12 02:28:22;;;;;;;10.00;6.90;;;;;;;4.80;100.00;95498.41;7402909;19;20404;-92
2023/10/12 02:30:53;;;;;;;9.77;7.17;;;;;;;6.21;100.00;95724.94;7405897;19;20365;-92
2023/10/12 02:33:27;;;;;;;16.93;6.47;;;;;;;5.78;100.00;95669.91;7401517;19;20401;-92
2023/10/12 02:35:54;;;;;;;7.80;5.53;;;;;;;4.99;100.00;95545.25;7407353;19;20385;-92
2023/10/12 02:38:27;;;;;;;7.23;5.60;;;;;;;5.63;100.00;95635.22;7402799;19;20408;-93
2023/10/12 02:40:58;;;;;;;10.53;5.80;;;;;;;6.05;100.00;95713.41;7403417;19;20389;-92
2023/10/12 02:43:27;;;;;;;7.00;5.33;;;;;;;6.01;100.00;95686.22;7405185;19;20394;-92
2023/10/12 02:46:01;;;;;;;5.90;5.30;;;;;;;5.89;100.00;95671.13;7402892;19;20396;-92
2023/10/12 02:48:29;;;;;;;8.83;5.83;;;;;;;5.57;100.00;95623.31;7403786;19;20404;-92
2023/10/12 02:51:01;;;;;;;7.50;5.83;;;;;;;6.76;100.00;95803.72;7402975;19;20394;-92
2023/10/12 02:53:30;;;;;;;9.70;6.27;;;;;;;5.36;100.00;95583.13;7403186;19;20388;-92
2023/10/12 02:56:06;;;;;;;7.40;5.13;;;;;;;5.29;100.00;95580.97;7401037;19;20393;-92
2023/10/12 02:58:33;;;;;;;6.47;5.40;;;;;;;6.22;100.00;95714.13;7404148;19;20774;-92
2023/10/12 03:01:14;;;;;;;9.23;4.97;;;;;;;6.18;100.00;95721.09;7404061;19;20384;-92
2023/10/12 03:03:54;;;;;;;12.57;5.70;;;;;;;5.92;100.00;95713.25;7402430;19;20391;-92
2023/10/12 03:06:23;;;;;;;10.70;5.93;;;;;;;5.39;100.00;95640.16;7404555;19;20405;-91
2023/10/12 03:11:28;;;;;;;8.30;7.47;;;;;;;6.13;100.00;95723.84;7422223;19;20380;-91
2023/10/12 03:14:12;;;;;;;8.57;5.33;;;;;;;6.02;100.00;95717.41;7426550;19;20389;-91
2023/10/12 03:16:43;;;;;;;13.63;6.70;;;;;;;6.06;100.00;95757.69;7417500;19;20459;-91
2023/10/12 03:19:24;;;;;;;12.10;6.20;;;;;;;5.39;100.00;95639.41;7401619;19;20502;-92
2023/10/12 03:21:52;;;;;;;8.67;6.40;;;;;;;5.99;100.00;95731.13;7402408;19;20385;-92
2023/10/12 03:24:21;;;;;;;13.03;7.90;;;;;;;5.24;100.00;95615.19;7404553;19;20400;-92
2023/10/12 03:27:11;;;;;;;9.77;6.87;;;;;;;5.16;100.00;95615.19;7400706;19;20374;-92
2023/10/12 03:29:54;;;;;;;16.30;7.63;;;;;;;5.48;100.00;95672.41;7401752;19;20385;-92
2023/10/12 03:32:25;;;;;;;7.87;6.80;;;;;;;5.53;100.00;95689.81;7403779;19;20373;-91
2023/10/12 03:37:40;;;;;;;9.27;7.17;;;;;;;5.17;100.00;95611.50;7400547;19;20896;-92
2023/10/12 03:40:50;;;;;;;11.93;7.40;;;;;;;6.28;100.00;95788.22;7399794;19;20404;-92
2023/10/12 03:42:56;;;;;;;11.83;8.60;;;;;;;5.91;100.00;95732.69;7404593;19;20389;-92
2023/10/12 03:45:48;;;;;;;10.20;6.73;;;;;;;5.77;100.00;95699.81;7403758;19;20396;-93
2023/10/12 03:48:24;;;;;;;15.40;7.60;;;;;;;4.75;100.00;95522.91;7401798;19;20432;-92
2023/10/12 03:53:57;;;;;;;8.27;7.57;;;;;;;5.09;100.00;95576.38;7397767;19;20480;-92
2023/10/12 03:56:39;;;;;;;10.03;8.93;;;;;;;4.94;100.00;95561.91;7402717;19;20949;-92
2023/10/12 03:59:06;;;;;;;9.70;7.50;;;;;;;6.31;100.00;95753.47;7399402;19;20433;-92
2023/10/12 04:01:39;;;;;;;9.30;7.17;;;;;;;5.64;100.00;95676.06;7404920;19;20413;-92
2023/10/12 04:09:42;;;;;;;7.70;6.40;;;;;;;4.56;100.00;95525.06;7399627;19;20420;-93
2023/10/12 04:14:57;;;;;;;12.70;7.40;;;;;;;5.56;100.00;95700.44;7403964;19;20377;-90
2023/10/12 04:20:12;;;;;;;11.57;6.60;;;;;;;5.39;100.00;95678.72;7400053;19;20379;-92
2023/10/12 04:25:32;;;;;;;11.83;8.50;;;;;;;4.67;100.00;95581.28;7402972;19;20384;-92
2023/10/12 04:28:17;;;;;;;8.47;7.60;;;;;;;5.21;100.00;95656.97;7399219;19;20439;-92
2023/10/12 04:33:24;;;;;;;10.10;7.27;;;;;;;4.81;100.00;95594.25;7399751;19;20373;-92
2023/10/12 04:41:38;;;;;;;7.60;6.23;;;;;;;6.32;100.00;95812.78;7399664;19;20393;-92
2023/10/12 04:44:25;;;;;;;8.40;7.33;;;;;;;5.36;100.00;95690.59;7399262;19;20381;-92
2023/10/12 04:46:58;;;;;;;10.23;7.93;;;;;;;5.62;100.00;95714.19;7400966;19;20459;-92
2023/10/12 04:57:27;;;;;;;14.20;8.20;;;;;;;6.41;100.00;95818.00;7399498;19;20456;-92
2023/10/12 05:07:54;;;;;;;8.53;7.27;;;;;;;6.30;100.00;95783.44;7398997;19;20406;-92
2023/10/12 05:13:05;;;;;;;9.47;6.57;;;;;;;5.97;100.00;95727.28;7398491;19;20369;-91
2023/10/12 05:15:42;;;;;;;8.43;6.97;;;;;;;6.48;100.00;95808.56;7404016;19;20412;-91
2023/10/12 05:18:11;;;;;;;7.87;6.57;;;;;;;5.82;100.00;95679.44;7399120;19;20728;-90
2023/10/12 05:20:42;;;;;;;8.70;7.77;;;;;;;6.25;100.00;95751.31;7398067;19;20388;-91
2023/10/12 05:23:10;;;;;;;10.87;7.87;;;;;;;6.96;100.00;95872.44;7397208;19;20440;-91
2023/10/12 05:26:07;;;;;;;8.10;6.50;;;;;;;6.39;100.00;95784.19;7396496;19;20388;-90
2023/10/12 05:28:38;;;;;;;9.10;7.40;;;;;;;6.06;100.00;95728.81;7394733;19;20951;-90
2023/10/12 05:33:43;;;;;;;10.40;7.47;;;;;;;5.54;100.00;95625.81;7403936;19;20480;-90
2023/10/12 05:36:13;;;;;;;12.40;7.60;;;;;;;6.14;100.00;95735.13;7412549;19;20385;-89
2023/10/12 05:38:49;;;;;;;13.00;7.90;;;;;;;6.52;100.00;95822.59;7398481;19;20419;-90
2023/10/12 05:41:34;;;;;;;10.03;6.93;;;;;;;6.21;100.00;95736.19;7395453;19;20452;-90
2023/10/12 05:44:03;;;;;;;11.27;7.30;;;;;;;5.86;100.00;95698.72;7396679;19;20384;-90
2023/10/12 05:46:34;;;;;;;12.60;7.70;;;;;;;5.23;100.00;95621.53;7396268;19;20377;-90
2023/10/12 05:49:11;;;;;;;9.63;8.43;;;;;;;5.99;100.00;95723.25;7395128;19;20411;-90
2023/10/12 05:51:45;;;;;;;8.17;7.17;;;;;;;5.36;100.00;95642.63;7395500;19;20383;-90
2023/10/12 05:54:15;;;;;;;11.63;6.80;;;;;;;4.89;100.00;95609.16;7394983;19;20377;-90
2023/10/12 05:56:43;;;;;;;13.97;8.73;;;;;;;5.97;100.00;95769.25;7396086;19;20391;-90
2023/10/12 05:59:12;;;;;;;15.23;9.57;;;;;;;6.67;100.00;95857.34;7394256;19;20404;-90
2023/10/12 06:01:45;;;;;;;16.50;10.93;;;;;;;6.31;100.00;95810.47;7395366;19;20387;-91
2023/10/12 06:04:18;;;;;;;22.57;10.03;;;;;;;5.89;100.00;95734.06;7396103;19;20373;-90
2023/10/12 06:06:47;;;;;;;12.57;8.63;;;;;;;5.27;100.00;95664.38;7395160;19;20883;-91
2023/10/12 06:09:24;;;;;;;17.43;10.53;;;;;;;6.84;100.00;95885.47;7394004;19;20476;-91
2023/10/12 06:11:53;;;;;;;20.27;11.17;;;;;;;6.97;100.00;95916.81;7395191;19;20404;-91
2023/10/12 06:14:21;;;;;;;16.37;10.67;;;;;;;7.26;100.00;95947.66;7394011;19;20387;-91
2023/10/12 06:16:54;;;;;;;14.60;11.70;;;;;;;6.17;100.00;95781.75;7405294;19;20511;-91
2023/10/12 06:19:44;;;;;;;20.73;12.10;;;;;;;6.09;100.00;95774.66;7404265;19;20936;-91
2023/10/12 06:22:32;;;;;;;14.50;10.90;;;;;;;6.90;100.00;95869.19;7406993;19;20395;-91
2023/10/12 06:25:08;;;;;;;12.17;9.97;;;;;;;6.48;100.00;95834.06;7403585;19;20368;-91
2023/10/12 06:27:37;;;;;;;15.73;10.40;;;;;;;6.39;100.00;95813.06;7394909;19;20428;-91
2023/10/12 06:30:16;;;;;;;17.07;10.30;;;;;;;7.35;100.00;95947.63;7394648;19;20388;-91
2023/10/12 06:32:48;;;;;;;20.73;10.90;;;;;;;7.09;100.00;95914.31;7395251;19;20408;-91
2023/10/12 06:45:56;;;;;;;16.00;11.07;;;;;;;7.33;100.00;95907.72;7394485;19;20444;-91
2023/10/12 06:51:05;;;;;;;18.93;12.13;;;;;;;7.85;100.00;95984.56;7393820;19;20392;-91
2023/10/12 06:53:34;;;;;;;16.30;11.97;;;;;;;7.96;100.00;95998.16;7396181;19;20380;-90
2023/10/12 07:04:19;;;;;;;21.00;13.53;;;;;;;8.18;100.00;95990.00;7394071;19;20898;-91
2023/10/12 07:07:11;;;;;;;20.03;13.67;;;;;;;7.89;100.00;95947.88;7394628;19;20381;-90
2023/10/12 07:09:39;;;;;;;17.37;13.07;;;;;;;8.10;100.00;95972.38;7394987;19;20887;-91
2023/10/12 07:12:14;;;;;;;17.20;11.60;;;;;;;8.27;100.00;95997.81;7396894;19;21016;-90
2023/10/12 07:14:53;;;;;;;16.73;11.93;;;;;;;8.19;100.00;95994.16;7404049;19;20388;-91
2023/10/12 07:17:31;;;;;;;13.10;10.80;;;;;;;7.70;100.00;95920.09;7400791;19;20396;-90
2023/10/12 07:19:58;;;;;;;15.83;13.07;;;;;;;8.34;100.00;95979.69;7400887;19;21304;-91
2023/10/12 07:22:25;;;;;;;18.97;14.60;;;;;;;8.17;100.00;95948.19;7400890;19;20372;-91
2023/10/12 07:24:53;;;;;;;19.57;12.73;;;;;;;8.66;100.00;95990.63;7400617;19;20388;-91
2023/10/12 07:27:22;;;;;;;18.50;14.10;;;;;;;9.15;100.00;96041.75;7404334;19;20750;-91
2023/10/12 07:32:56;;;;;;;17.00;12.57;;;;;;;9.67;100.00;96030.69;7399207;19;20807;-91
2023/10/12 07:35:34;;;;;;;13.83;9.60;;;;;;;9.81;100.00;96027.75;7397618;19;20467;-91
2023/10/12 07:38:14;;;;;;;16.13;9.17;;;;;;;9.78;100.00;96000.91;7399277;19;20950;-91
2023/10/12 07:40:56;;;;;;;14.50;9.53;;;;;;;9.91;100.00;96003.56;7402402;19;20384;-91
2023/10/12 07:43:24;;;;;;;14.03;8.63;;;;;;;10.23;100.00;96033.63;7400688;19;20365;-91
2023/10/12 07:45:52;;;;;;;9.67;8.77;;;;;;;10.05;100.00;95993.44;7400064;19;20364;-90
2023/10/12 07:48:31;;;;;;;22.40;13.27;;;;;;;10.52;100.00;96037.91;7401974;19;20413;-91
2023/10/12 07:53:50;;;;;;;12.13;8.70;;;;;;;10.75;100.00;95980.03;7400353;19;20360;-90
2023/10/12 07:56:18;;;;;;;14.63;9.40;;;;;;;11.53;100.00;96057.00;7399754;19;20365;-91
2023/10/12 07:58:58;;;;;;;11.63;9.13;;;;;;;11.54;100.00;96037.38;7398335;19;20656;-91
2023/10/12 08:03:58;;;;;;;10.70;8.70;;;;;;;11.61;100.00;96050.00;7401444;19;20384;-91
2023/10/12 08:09:21;;;;;;;11.27;7.10;;;;;;;11.67;100.00;96002.88;7400032;19;20759;-90
2023/10/12 08:11:48;;;;;;;12.97;7.10;;;;;;;11.91;100.00;96028.47;7399304;19;20360;-91
2023/10/12 08:19:39;;;;;;;11.60;8.30;;;;;;;12.56;100.00;96085.31;7401124;19;20385;-91
2023/10/12 08:22:17;;;;;;;22.00;9.60;;;;;;;12.10;100.00;96033.84;7402251;19;20791;-91
2023/10/12 08:24:46;;;;;;;14.53;9.00;;;;;;;11.84;100.00;95990.09;7399757;19;20387;-91
2023/10/12 08:27:13;;;;;;;21.33;14.10;;;;;;;12.27;100.00;96046.75;7398552;19;20396;-91
2023/10/12 08:39:51;;;;;;;11.83;7.40;;;;;;;12.66;100.00;96030.94;7403850;19;20380;-91
2023/10/12 08:45:08;;;;;;;15.23;6.87;;;;;;;12.29;100.00;95924.50;7401505;19;20376;-91
2023/10/12 08:52:50;;;;;;;8.63;6.43;;;;;;;13.07;100.00;96000.31;7401791;19;20447;-91
2023/10/12 08:55:19;;;;;;;10.30;7.23;;;;;;;12.61;100.00;95920.59;7401805;19;20732;-91
2023/10/12 08:58:12;;;;;;;15.13;7.43;;;;;;;13.32;100.00;95990.97;7398503;19;20389;-91
2023/10/12 09:00:44;;;;;;;7.63;6.70;;;;;;;13.24;100.00;95964.66;7397145;19;21128;-91
2023/10/12 09:05:51;;;;;;;5.70;4.70;;;;;;;13.20;100.00;95940.69;7399696;19;20405;-91
2023/10/12 09:10:51;;;;;;;11.13;5.77;;;;;;;14.36;100.00;96091.06;7397369;19;20726;-91
2023/10/12 09:13:19;;;;;;;13.23;5.77;;;;;;;14.24;100.00;96072.66;7397186;19;20377;-91
2023/10/12 09:15:50;;;;;;;12.53;6.03;;;;;;;14.53;100.00;96090.59;7394948;19;20406;-91
2023/10/12 09:18:17;;;;;;;8.57;5.90;;;;;;;13.68;100.00;95969.59;7395475;19;20405;-91
2023/10/12 09:21:03;;;;;;;11.40;5.90;;;;;;;14.29;100.00;96067.81;7396867;19;20412;-91
2023/10/12 09:31:48;;;;;;;8.47;6.03;;;;;;;14.42;100.00;96101.06;7396957;19;20384;-91
2023/10/12 09:36:43;;;;;;;9.53;7.17;;;;;;;14.60;100.00;96114.69;7396126;19;20376;-91
2023/10/12 09:39:13;;;;;;;15.47;6.00;;;;;;;14.55;100.00;96109.63;7394407;19;20461;-91
2023/10/12 09:41:43;;;;;;;15.47;7.27;;;;;;;14.17;100.00;96060.78;7398810;19;20806;-91
2023/10/12 09:44:11;;;;;;;11.33;6.23;;;;;;;14.07;100.00;96031.34;7397667;19;20392;-92
2023/10/12 09:46:46;;;;;;;8.63;6.50;;;;;;;14.39;100.00;96109.75;7399298;19;20953;-91
2023/10/12 09:49:22;;;;;;;8.40;5.67;;;;;;;13.56;100.00;95976.59;7396215;19;20444;-91
2023/10/12 09:51:54;;;;;;;7.17;6.40;;;;;;;14.33;100.00;96103.19;7399316;19;21096;-91
2023/10/12 09:54:28;;;;;;;10.70;6.43;;;;;;;14.44;100.00;96104.19;7395753;19;22213;-91
2023/10/12 09:57:04;;;;;;;8.00;5.60;;;;;;;14.58;100.00;96127.56;7396791;19;20455;-91
2023/10/12 09:59:31;;;;;;;8.90;5.80;;;;;;;14.07;100.00;96031.34;7397653;19;20416;-91
2023/10/12 10:02:02;;;;;;;10.40;6.20;;;;;;;13.97;100.00;95998.16;7397759;19;20963;-91
2023/10/12 10:04:34;;;;;;;15.20;5.67;;;;;;;13.98;100.00;95977.66;7403855;19;20385;-92
2023/10/12 10:07:25;;;;;;;9.60;6.10;;;;;;;14.66;100.00;96091.94;7400830;19;20384;-91
2023/10/12 10:09:56;;;;;;;9.20;6.70;;;;;;;14.52;100.00;96059.03;7409084;19;20385;-91
2023/10/12 10:12:27;;;;;;;8.93;6.60;;;;;;;15.07;100.00;96126.75;7398942;19;20388;-91
2023/10/12 10:15:10;;;;;;;9.47;6.23;;;;;;;15.10;100.00;96103.97;7399983;19;20384;-91
2023/10/12 10:17:47;;;;;;;6.33;4.90;;;;;;;14.67;100.00;96044.81;7403199;19;20383;-91
2023/10/12 10:22:59;;;;;;;5.57;4.93;;;;;;;13.96;100.00;95961.31;7396715;19;20404;-91
2023/10/12 10:25:50;;;;;;;11.27;6.27;;;;;;;14.74;100.00;96052.91;7396190;19;20368;-91
2023/10/12 10:28:32;;;;;;;6.97;6.20;;;;;;;15.12;100.00;96089.16;7395469;19;20489;-91
2023/10/12 10:30:59;;;;;;;10.73;6.10;;;;;;;14.29;100.00;95982.72;7396365;19;20373;-91
2023/10/12 10:33:28;;;;;;;7.50;5.97;;;;;;;15.19;100.00;96115.13;7397556;19;20389;-91
2023/10/12 10:36:10;;;;;;;7.57;6.77;;;;;;;14.93;100.00;96063.41;7399112;19;20396;-91
2023/10/12 10:41:46;;;;;;;9.67;6.10;;;;;;;14.90;100.00;96084.69;7415117;19;20393;-91
2023/10/12 10:44:17;;;;;;;15.43;7.03;;;;;;;14.01;100.00;95961.00;7405234;19;20950;-91
2023/10/12 10:46:46;;;;;;;11.53;6.17;;;;;;;15.08;100.00;96099.00;7400101;19;20752;-91
2023/10/12 10:49:16;;;;;;;10.07;5.87;;;;;;;14.54;100.00;96019.53;7402744;19;20796;-91
2023/10/12 10:54:37;;;;;;;10.13;6.13;;;;;;;14.61;100.00;96014.31;7402207;19;20389;-91
2023/10/12 10:57:17;;;;;;;10.13;5.60;;;;;;;14.97;100.00;96066.16;7402923;19;20373;-91
2023/10/12 10:59:44;;;;;;;11.37;5.53;;;;;;;14.50;100.00;96006.19;7401415;19;20439;-91
2023/10/12 11:02:14;;;;;;;8.10;5.50;;;;;;;14.20;100.00;95955.59;7401927;19;20372;-91
2023/10/12 11:04:44;;;;;;;15.90;6.17;;;;;;;13.38;100.00;95832.16;7406094;19;20388;-91
2023/10/12 11:07:14;;;;;;;12.10;6.43;;;;;;;13.40;100.00;95845.06;7401449;19;20906;-91
2023/10/12 11:12:22;;;;;;;17.47;9.73;;;;;;;13.26;100.00;95832.34;7401372;19;20376;-91
2023/10/12 11:15:00;;;;;;;11.93;10.47;;;;;;;14.21;100.00;95970.41;7401493;19;21337;-92
2023/10/12 11:17:30;;;;;;;9.17;7.80;;;;;;;14.48;100.00;96035.06;7404301;19;20388;-91
2023/10/12 11:19:58;;;;;;;15.33;7.03;;;;;;;14.81;100.00;96066.28;7404008;19;20388;-91
2023/10/12 11:22:25;;;;;;;8.83;5.83;;;;;;;14.08;100.00;95967.19;7400790;19;20372;-91
2023/10/12 11:24:57;;;;;;;11.87;6.70;;;;;;;14.39;100.00;96024.63;7401933;19;20393;-91
2023/10/12 11:27:31;;;;;;;6.70;5.83;;;;;;;15.05;100.00;96118.34;7400936;19;20401;-91
2023/10/12 11:30:12;;;;;;;10.73;6.30;;;;;;;14.31;100.00;96014.25;7403516;19;20369;-91
2023/10/12 11:32:53;;;;;;;13.07;6.87;;;;;;;13.69;100.00;95918.00;7402640;19;20380;-91
2023/10/12 11:35:37;;;;;;;12.00;6.40;;;;;;;14.63;100.00;96044.78;7400406;19;20911;-91
2023/10/12 11:38:14;;;;;;;9.80;7.10;;;;;;;14.09;100.00;95986.56;7403063;19;20425;-91
2023/10/12 11:40:41;;;;;;;11.87;6.50;;;;;;;14.62;100.00;96056.53;7401709;19;20897;-91
2023/10/12 11:43:08;;;;;;;7.30;6.60;;;;;;;14.99;100.00;96109.16;7400049;19;20376;-91
2023/10/12 11:45:35;;;;;;;10.63;6.57;;;;;;;14.73;100.00;96084.09;7404500;19;20413;-91
2023/10/12 11:48:20;;;;;;;9.43;6.63;;;;;;;14.20;100.00;96040.69;7401536;19;20412;-91
2023/10/12 11:50:49;;;;;;;9.50;6.10;;;;;;;14.42;100.00;96066.50;7401101;19;20365;-91
2023/10/12 11:53:17;;;;;;;6.83;5.90;;;;;;;14.65;100.00;96100.28;7404394;19;20441;-91
2023/10/12 11:55:47;;;;;;;8.57;6.83;;;;;;;14.08;100.00;95999.09;7400178;19;20393;-92
2023/10/12 11:58:19;;;;;;;11.03;6.10;;;;;;;14.48;100.00;96040.38;7396845;19;20401;-91
2023/10/12 12:00:50;;;;;;;7.80;6.00;;;;;;;14.15;100.00;96012.47;7399206;19;20401;-92
2023/10/12 12:03:17;;;;;;;9.57;6.27;;;;;;;13.90;100.00;95969.59;7400514;19;20700;-91
2023/10/12 12:05:51;;;;;;;8.30;6.83;;;;;;;13.68;100.00;95937.72;7402416;19;20389;-91
2023/10/12 12:08:18;;;;;;;9.80;6.60;;;;;;;13.30;100.00;95888.91;7399069;19;20472;-91
2023/10/12 12:10:56;;;;;;;10.60;6.40;;;;;;;14.05;100.00;95997.16;7400819;19;20398;-92
2023/10/12 12:13:23;;;;;;;9.27;6.93;;;;;;;13.67;100.00;95944.16;7401848;19;20390;-91
2023/10/12 12:15:55;;;;;;;11.63;7.00;;;;;;;13.53;100.00;95910.16;7398019;19;20934;-91
2023/10/12 12:18:22;;;;;;;12.00;6.77;;;;;;;13.61;100.00;95904.56;7398634;19;20409;-91
2023/10/12 12:20:56;;;;;;;10.90;6.70;;;;;;;13.96;100.00;95963.97;7399641;19;20369;-91
2023/10/12 12:23:28;;;;;;;10.57;6.40;;;;;;;14.28;100.00;96012.28;7401430;19;20386;-91
2023/10/12 12:26:14;;;;;;;9.47;6.60;;;;;;;13.50;100.00;95898.34;7404047;19;20389;-92
2023/10/12 12:28:44;;;;;;;11.83;7.33;;;;;;;13.73;100.00;95958.66;7404557;19;20400;-91
2023/10/12 12:31:15;;;;;;;11.27;7.87;;;;;;;13.03;100.00;95826.97;7400264;19;20391;-91
2023/10/12 12:33:44;;;;;;;7.73;5.47;;;;;;;13.96;100.00;95971.94;7399790;19;20385;-91
2023/10/12 12:36:21;;;;;;;8.20;5.90;;;;;;;13.43;100.00;95884.94;7397966;19;20947;-91
2023/10/12 12:38:52;;;;;;;8.70;6.80;;;;;;;13.50;100.00;95879.75;7397593;19;20431;-91
2023/10/12 12:41:19;;;;;;;13.97;6.10;;;;;;;14.36;100.00;96012.06;7398762;19;20478;-91
2023/10/12 12:43:48;;;;;;;14.43;7.33;;;;;;;13.02;100.00;95831.53;7401286;19;20384;-90
2023/10/12 12:46:17;;;;;;;12.20;7.57;;;;;;;13.21;100.00;95856.50;7401949;19;20405;-91
2023/10/12 12:48:50;;;;;;;10.17;6.30;;;;;;;14.00;100.00;95980.72;7399392;19;20945;-91
2023/10/12 12:51:20;;;;;;;8.30;7.10;;;;;;;12.36;100.00;95725.78;7400404;19;20365;-91
2023/10/12 12:53:51;;;;;;;12.17;6.50;;;;;;;12.70;100.00;95791.19;7400408;19;20951;-91
2023/10/12 12:56:22;;;;;;;11.03;6.87;;;;;;;13.82;100.00;95956.53;7400676;19;20935;-91
2023/10/12 12:58:51;;;;;;;11.03;6.47;;;;;;;12.83;100.00;95789.13;7396501;19;20986;-91
2023/10/12 13:01:23;;;;;;;10.30;8.10;;;;;;;13.61;100.00;95878.00;7398781;19;20381;-91
2023/10/12 13:03:55;;;;;;;12.37;6.87;;;;;;;13.59;100.00;95882.91;7398278;19;20704;-91
2023/10/12 13:06:24;;;;;;;10.30;6.83;;;;;;;13.97;100.00;95949.53;7401872;19;20394;-91
2023/10/12 13:08:51;;;;;;;7.83;6.13;;;;;;;14.03;100.00;95969.41;7400326;19;21020;-91
2023/10/12 13:11:22;;;;;;;9.53;6.70;;;;;;;13.43;100.00;95911.50;7398563;19;20793;-91
2023/10/12 13:13:49;;;;;;;11.07;7.60;;;;;;;12.99;100.00;95887.22;7399734;19;20373;-91
2023/10/12 13:16:19;;;;;;;12.47;6.80;;;;;;;13.79;100.00;96011.16;7397765;19;20795;-91
2023/10/12 13:18:48;;;;;;;9.73;7.50;;;;;;;12.13;100.00;95763.63;7396195;19;20423;-92
2023/10/12 13:21:16;;;;;;;10.40;7.23;;;;;;;12.11;100.00;95784.41;7397384;19;20388;-92
2023/10/12 13:23:45;;;;;;;10.03;7.80;;;;;;;13.13;100.00;95943.19;7397324;19;20413;-91
2023/10/12 13:26:17;;;;;;;9.90;8.20;;;;;;;13.10;100.00;95948.44;7397583;19;20448;-91
2023/10/12 13:28:47;;;;;;;9.43;8.07;;;;;;;13.58;100.00;96016.88;7394714;19;20412;-91
2023/10/12 13:31:17;;;;;;;11.60;8.27;;;;;;;12.48;100.00;95871.47;7395599;19;20381;-91
2023/10/12 13:33:44;;;;;;;12.07;7.77;;;;;;;12.81;100.00;95934.63;7395668;19;20397;-91
2023/10/12 13:36:11;;;;;;;10.20;8.93;;;;;;;13.22;100.00;96004.03;7394833;19;20384;-91
2023/10/12 13:38:39;;;;;;;8.63;7.83;;;;;;;12.53;100.00;95913.59;7394715;19;20425;-91
2023/10/12 13:41:10;;;;;;;14.23;7.30;;;;;;;11.93;100.00;95833.63;7395387;19;20373;-92
2023/10/12 13:43:39;;;;;;;12.70;7.80;;;;;;;12.52;100.00;95922.69;7395736;19;20384;-92
2023/10/12 13:46:10;;;;;;;12.00;7.70;;;;;;;12.53;100.00;95928.75;7396278;19;20409;-92
2023/10/12 13:48:38;;;;;;;12.57;7.90;;;;;;;11.63;100.00;95790.97;7395315;19;20488;-92
2023/10/12 13:51:20;;;;;;;9.83;8.60;;;;;;;12.62;100.00;95938.03;7396143;19;20373;-92
2023/10/12 13:53:49;;;;;;;10.80;7.87;;;;;;;11.36;100.00;95750.28;7395983;19;20764;-93
2023/10/12 13:56:30;;;;;;;10.93;7.83;;;;;;;11.46;100.00;95772.78;7395350;19;20388;-92
2023/10/12 13:59:00;;;;;;;11.70;8.40;;;;;;;11.54;100.00;95772.63;7394986;19;20840;-92
2023/10/12 14:01:33;;;;;;;12.07;8.47;;;;;;;12.09;100.00;95870.66;7396787;19;20385;-92
2023/10/12 14:04:01;;;;;;;12.07;8.60;;;;;;;12.07;100.00;95883.50;7394486;19;20393;-92
2023/10/12 14:06:29;;;;;;;15.70;9.57;;;;;;;12.79;100.00;95979.31;7395651;19;20376;-92
2023/10/12 14:08:58;;;;;;;13.07;8.10;;;;;;;12.05;100.00;95848.63;7394236;19;20427;-92
2023/10/12 14:11:29;;;;;;;19.17;9.30;;;;;;;11.55;100.00;95760.13;7395559;19;20467;-92
2023/10/12 14:14:01;;;;;;;9.47;8.47;;;;;;;13.13;100.00;96000.81;7408579;19;20380;-93
2023/10/12 14:16:29;;;;;;;9.80;8.80;;;;;;;12.52;100.00;95912.06;7420739;19;20396;-92
2023/10/12 14:18:57;;;;;;;11.60;9.17;;;;;;;11.80;100.00;95819.72;7418807;19;20412;-92
2023/10/12 14:21:29;;;;;;;9.63;8.73;;;;;;;12.30;100.00;95896.88;7395327;19;20373;-92
2023/10/12 14:24:02;;;;;;;9.73;8.10;;;;;;;12.62;100.00;95943.34;7396510;19;20387;-92